Web Počasí Slunečno.cz™ (Podmínky, ePrivacy) používá cookies a personalizace pro reklamní účely. Pohybem po stránce vyjadřujete souhlas. Odejít

Aktuální počasí v Česku a ve světě - METAR

Seznam meteostanic umístěných nejčasteji na letišti v ČR a ve světě

Vyhledat místa podle abecedy:
A B C D E F G H I J K L M N O P Q R S T U V W X Y Z

Filtrovat:

ID stanice:
a/nebo
Název místa (fulltext):
 
Místo (ID)Naposledy načteno 
Milešovka (Milesovka) 05.12.2021 19:00 UTC Zobrazit data
Místo: Milešovka
Teplota: -2 °C (pocitová: -12.6 °C)
Vítr: 6 m/s z(e) 330°
Počasí: zataženo
Dohlednost: 30 km
Zákl. oblačnosti: 2/8 1200 m;7/8 3300 m
Vlhkost: 100%
Mošnov (Ostrava/Mo) 05.12.2021 19:00 UTC Zobrazit data
Místo: Mošnov
Teplota: 1 °C (pocitová: -4.6 °C)
Vítr: 2 m/s z(e) 240°
Počasí: zataženo
Dohlednost: 6 km
Zákl. oblačnosti: 8/8 750 m
Vlhkost: 100%
Macau (VMMC) 05.12.2021 20:00 UTC Zobrazit METAR
VMMC 052000Z 36011KT CAVOK 18/11 Q1019 NOSIG
Madeira (LPMA) 05.12.2021 20:00 UTC Zobrazit METAR
LPMA 052000Z 01014KT 350V050 9999 SCT015 19/14 Q1030
Madrid (LETO) 05.12.2021 20:00 UTC Zobrazit METAR
LETO 052000Z 03005KT 330V070 9999 SCT052 SCT066 08/02 Q1021 NOSIG
Majuro Atoll (PKMA) Zatím nenačteno  
Malabo (FGSL) 05.12.2021 02:00 UTC Zobrazit METAR
FGSL 050200Z 24007KT 9999 FEW010 26/24 Q1010 NOSIG
Malaga (LEMG) 05.12.2021 20:00 UTC Zobrazit METAR
LEMG 052000Z 29016KT 9999 FEW050 15/04 Q1024 NOSIG
Male (VRMM) 05.12.2021 20:00 UTC Zobrazit METAR
VRMM 052000Z 27012KT 9999 FEW018 28/24 Q1011 NOSIG
Malmo (ESMS) 05.12.2021 19:50 UTC Zobrazit METAR
ESMS 051950Z 06016KT CAVOK M02/M05 Q1014
Malta (LMML) 05.12.2021 19:45 UTC Zobrazit METAR
LMML 051945Z 23013KT 9999 FEW031 15/09 Q1010 NOSIG
Managua (MNMG) 05.12.2021 20:00 UTC Zobrazit METAR
MNMG 052000Z 04014KT 9999 FEW025 33/22 Q1008 A2979 NOSIG
Manchester (EGCC) 05.12.2021 19:50 UTC Zobrazit METAR
EGCC 051950Z AUTO 32003KT 9999 BKN017 OVC038 05/02 Q1016
Manila (RPLL) 05.12.2021 20:00 UTC Zobrazit METAR
RPLL 052000Z 02005KT 9999 FEW025 SCT100 24/18 Q1010 NOSIG RMK A2983
Manzini (FDMS) 02.05.2021 12:00 UTC Zobrazit METAR
FDMS 021200Z 18011KT 9999 SCT040 24/11 Q1025 NOSIG
Maputo (FQMA) 05.12.2021 20:00 UTC Zobrazit METAR
FQMA 052000Z 07005KT 9999 BKN025 26/23 Q1013 NOSIG
Maribor (LJMB) 05.12.2021 20:00 UTC Zobrazit METAR
LJMB 052000Z 36006KT 6000 -RA OVC037 02/01 Q1005
Marrakech (GMMX) 05.12.2021 20:00 UTC Zobrazit METAR
GMMX 052000Z 11006KT CAVOK 12/03 Q1026 NOSIG
Maseru (FXMM) 05.12.2021 09:00 UTC Zobrazit METAR
FXMM 050900Z 06017KT 9999 BKN030 22/15 Q1020 NOSIG
Mauritius (FIMP) 05.12.2021 20:00 UTC Zobrazit METAR
FIMP 052000Z 08010KT 9999 SCT018 26/21 Q1020
Melilla (GEML) 05.12.2021 20:00 UTC Zobrazit METAR
GEML 052000Z AUTO 27020G34KT 200V320 9999 FEW027 15/10 Q1022
Mexico City (MMMX) 05.12.2021 19:47 UTC Zobrazit METAR
MMMX 051947Z VRB03KT 7SM FEW230 22/03 A3027 NOSIG RMK 8/004 HZY
Midway Atoll, Sand Island (PMDY) 05.12.2021 19:56 UTC Zobrazit METAR
PMDY 051956Z AUTO 05019G24KT 10SM BKN047 21/11 A3021 RMK AO2 PK WND 05028/1923 SLP230 T02060111
Milan (LIMC) 05.12.2021 19:50 UTC Zobrazit METAR
LIMC 051950Z 06004KT CAVOK M01/M03 Q1003 NOSIG
Minsk (UMMM) 11.07.2016 14:00 UTC Zobrazit METAR
UMMM 111400Z ///// //// BKN040 BKN200 28/16 Q1009 NOSIG RMK QFE738
Mitilini (LGMT) 05.12.2021 19:50 UTC Zobrazit METAR
LGMT 051950Z 19004KT 9999 FEW020 15/12 Q1012
Mogadishu (HCMM) 05.12.2021 14:00 UTC Zobrazit METAR
HCMM 051400Z 08016KT CAVOK 29/24 Q1011
Monrovia (GLRB) 04.12.2021 15:00 UTC Zobrazit METAR
GLRB 041500Z 19007KT 9999 BKN018 32/25 Q1008 NOSIG
Montevideo (SUMU) 05.12.2021 20:00 UTC Zobrazit METAR
SUMU 052000Z 12012KT 9999 BKN015 OVC100 20/16 Q1019 NOSIG
Montpellier/ Mediterranee (LFMT) 05.12.2021 20:00 UTC Zobrazit METAR
LFMT 052000Z AUTO 27004KT 230V330 9999 FEW048 OVC220 07/M01 Q1010 NOSIG
Moscow (UUEE) Zatím nenačteno  
Mostar (LQMO) 05.12.2021 20:00 UTC Zobrazit METAR
LQMO 052000Z 34004KT 260V050 8000 SHRA FEW006 SCT030 BKN050 10/08 Q1000
Mount Pleasant (EGYP) 05.12.2021 19:50 UTC Zobrazit METAR
EGYP 051950Z 24024KT 9999 FEW045 13/02 Q1011
Munich (EDDM) 05.12.2021 19:50 UTC Zobrazit METAR
EDDM 051950Z VRB02KT 9999 BKN022 M01/M01 Q1007 TEMPO BKN008
Muscat (OOMS) 05.12.2021 19:50 UTC Zobrazit METAR
OOMS 051950Z 21002KT CAVOK 23/17 Q1016 NOSIG
Reklama

Reklama


Newslettter

Počasí na Váš email

Každý den Vám pošleme předpověď
Emaily chodí ráno a bez reklamy



Odhlásit newsletter

Reklama